Time;durP1;ratioP1;P1;durP2;ratioP2;P2;SDS_P1;SDS_P2;PMS_P1;PMS_P2;Temp;Humidity;BMP_temperature;BMP_pressure;BME280_temperature;BME280_humidity;BME280_pressure;Samples;Min_cycle;Max_cycle;Signal;HPM_P1;HPM_P2
2022/04/30 00:01:01;;;;;;;;;;;17.50;99.90;;;;;;5106996;28;20382;-77
2022/04/30 00:03:28;;;;;;;;;;;17.60;99.90;;;;;;5074199;28;19915;-81
2022/04/30 00:05:55;;;;;;;;;;;17.70;99.90;;;;;;5074113;28;19916;-77
2022/04/30 00:08:22;;;;;;;;;;;17.70;99.90;;;;;;5073985;28;19954;-79
2022/04/30 00:10:50;;;;;;;;;;;17.70;99.90;;;;;;5073899;28;19916;-76
2022/04/30 00:13:17;;;;;;;;;;;17.70;99.90;;;;;;5074021;28;19931;-77
2022/04/30 00:15:44;;;;;;;;;;;17.80;99.90;;;;;;5074027;28;19946;-80
2022/04/30 00:18:10;;;;;;;;;;;17.60;99.90;;;;;;5073858;28;19959;-78
2022/04/30 00:20:38;;;;;;;;;;;17.60;99.90;;;;;;5073867;28;19909;-77
2022/04/30 00:23:05;;;;;;;;;;;17.70;99.90;;;;;;5073845;28;19908;-76
2022/04/30 00:25:35;;;;;;;;;;;17.80;99.90;;;;;;5073612;28;19909;-74
2022/04/30 00:28:02;;;;;;;;;;;17.90;99.90;;;;;;5073845;28;19915;-74
2022/04/30 00:30:28;;;;;;;;;;;17.90;99.90;;;;;;5073606;28;20359;-76
2022/04/30 00:32:55;;;;;;;;;;;17.90;99.90;;;;;;5073541;28;19912;-75
2022/04/30 00:35:22;;;;;;;;;;;17.90;99.90;;;;;;5073522;28;19955;-79
2022/04/30 00:37:48;;;;;;;;;;;17.90;99.90;;;;;;5073226;28;19919;-78
2022/04/30 00:40:15;;;;;;;;;;;18.10;99.90;;;;;;5073464;28;19962;-82
2022/04/30 00:42:42;;;;;;;;;;;18.10;99.90;;;;;;5073577;28;19917;-75
2022/04/30 00:45:09;;;;;;;;;;;18.10;99.90;;;;;;5073483;28;19908;-76
2022/04/30 00:47:35;;;;;;;;;;;17.90;99.90;;;;;;5073086;28;20319;-77
2022/04/30 00:50:02;;;;;;;;;;;17.90;99.90;;;;;;5073086;28;19960;-78
2022/04/30 00:52:29;;;;;;;;;;;17.90;99.90;;;;;;5073063;28;19937;-74
2022/04/30 00:54:59;;;;;;;;;;;18.00;99.90;;;;;;5073285;28;19908;-76
2022/04/30 00:57:27;;;;;;;;;;;17.90;99.90;;;;;;5073269;28;19931;-78
2022/04/30 01:00:00;;;;;;;;;;;17.90;99.90;;;;;;5072400;28;19987;-77
2022/04/30 01:02:28;;;;;;;;;;;17.90;99.90;;;;;;5073286;28;19931;-76
2022/04/30 01:04:56;;;;;;;;;;;18.00;99.90;;;;;;5073162;28;19908;-77
2022/04/30 01:07:23;;;;;;;;;;;18.00;99.90;;;;;;5072995;28;19912;-81
2022/04/30 01:09:51;;;;;;;;;;;18.00;99.90;;;;;;5072937;28;20303;-83
2022/04/30 01:12:18;;;;;;;;;;;18.00;99.90;;;;;;5073091;28;19912;-75
2022/04/30 01:14:45;;;;;;;;;;;18.00;99.90;;;;;;5073279;28;19999;-87
2022/04/30 01:17:12;;;;;;;;;;;18.00;99.90;;;;;;5072899;28;19908;-78
2022/04/30 01:19:41;;;;;;;;;;;18.00;99.90;;;;;;5072777;28;20020;-80
2022/04/30 01:22:12;;;;;;;;;;;17.90;99.90;;;;;;5072776;28;20363;-78
2022/04/30 01:24:39;;;;;;;;;;;18.00;99.90;;;;;;5073721;28;19982;-89
2022/04/30 01:27:06;;;;;;;;;;;17.90;99.90;;;;;;5072870;28;19953;-85
2022/04/30 01:29:42;;;;;;;;;;;18.00;99.90;;;;;;5072495;28;19916;-79
2022/04/30 01:37:38;;;;;;;;;;;18.00;99.90;;;;;;5114023;28;19915;-78
2022/04/30 01:40:06;;;;;;;;;;;18.00;99.90;;;;;;5113813;28;19907;-76
2022/04/30 01:42:38;;;;;;;;;;;18.00;99.90;;;;;;5113847;28;19922;-75
2022/04/30 01:45:06;;;;;;;;;;;18.00;99.90;;;;;;5112454;28;19914;-77
2022/04/30 01:47:34;;;;;;;;;;;18.00;99.90;;;;;;5113669;28;19915;-75
2022/04/30 01:50:01;;;;;;;;;;;18.00;99.90;;;;;;5113393;28;19926;-80
2022/04/30 01:52:29;;;;;;;;;;;18.00;99.90;;;;;;5113494;28;20298;-79
2022/04/30 01:54:57;;;;;;;;;;;18.00;99.90;;;;;;5113792;28;19999;-77
2022/04/30 01:57:25;;;;;;;;;;;17.90;99.90;;;;;;5113958;28;19908;-78
2022/04/30 02:00:00;;;;;;;;;;;18.00;99.90;;;;;;5113420;28;20174;-78
2022/04/30 02:02:37;;;;;;;;;;;18.00;99.90;;;;;;5113750;28;19915;-78
2022/04/30 02:05:06;;;;;;;;;;;18.00;99.90;;;;;;5113694;28;19908;-83
2022/04/30 02:07:34;;;;;;;;;;;18.00;99.90;;;;;;5113469;28;20254;-78
2022/04/30 02:10:01;;;;;;;;;;;17.90;99.90;;;;;;5113648;28;19943;-83
2022/04/30 02:12:31;;;;;;;;;;;18.00;99.90;;;;;;5116509;28;19908;-82
2022/04/30 02:14:58;;;;;;;;;;;17.90;99.90;;;;;;5117776;28;20341;-82
2022/04/30 02:17:28;;;;;;;;;;;17.90;99.90;;;;;;5117711;28;20274;-84
2022/04/30 02:22:40;;;;;;;;;;;17.90;99.90;;;;;;5117794;28;19915;-80
2022/04/30 02:25:09;;;;;;;;;;;17.90;99.90;;;;;;5117562;28;19954;-82
2022/04/30 02:27:43;;;;;;;;;;;17.90;99.90;;;;;;5117252;28;19908;-83
2022/04/30 02:30:20;;;;;;;;;;;17.90;99.90;;;;;;5117538;28;19926;-82
2022/04/30 02:32:49;;;;;;;;;;;17.90;99.90;;;;;;5117579;28;19919;-82
2022/04/30 02:35:20;;;;;;;;;;;18.00;99.90;;;;;;5117539;28;19908;-83
2022/04/30 02:37:52;;;;;;;;;;;17.90;99.90;;;;;;5115946;28;19912;-80
2022/04/30 02:40:20;;;;;;;;;;;18.00;99.90;;;;;;5117343;28;19908;-82
2022/04/30 02:42:46;;;;;;;;;;;18.00;99.90;;;;;;5117060;28;19914;-80
2022/04/30 02:45:14;;;;;;;;;;;18.00;99.90;;;;;;5117068;28;19908;-80
2022/04/30 02:47:44;;;;;;;;;;;18.00;99.90;;;;;;5115606;28;19907;-79
2022/04/30 02:50:12;;;;;;;;;;;18.10;99.90;;;;;;5116884;28;20277;-81
2022/04/30 02:52:43;;;;;;;;;;;17.80;99.90;;;;;;5115497;28;19990;-81
2022/04/30 02:55:11;;;;;;;;;;;17.80;99.90;;;;;;5116931;28;19911;-81
2022/04/30 03:00:39;;;;;;;;;;;17.80;99.90;;;;;;5117383;28;20016;-82
2022/04/30 03:03:10;;;;;;;;;;;17.80;99.90;;;;;;5116666;28;19921;-81
2022/04/30 03:05:37;;;;;;;;;;;17.70;99.90;;;;;;5116204;28;20014;-82
2022/04/30 03:08:06;;;;;;;;;;;17.60;99.90;;;;;;5116849;28;19912;-82
2022/04/30 03:10:33;;;;;;;;;;;17.70;99.90;;;;;;5116774;28;19967;-78
2022/04/30 03:12:59;;;;;;;;;;;17.70;99.90;;;;;;5116721;28;19908;-83
2022/04/30 03:15:29;;;;;;;;;;;17.70;99.90;;;;;;5116556;28;19912;-82
2022/04/30 03:23:24;;;;;;;;;;;18.00;99.90;;;;;;5116321;28;19953;-84
2022/04/30 03:25:52;;;;;;;;;;;18.10;99.90;;;;;;5116303;28;19915;-83
2022/04/30 03:28:18;;;;;;;;;;;18.20;99.90;;;;;;5116401;28;20338;-84
2022/04/30 03:30:46;;;;;;;;;;;18.20;99.90;;;;;;5116127;28;19916;-83
2022/04/30 03:33:13;;;;;;;;;;;18.30;99.90;;;;;;5116216;28;19994;-82
2022/04/30 03:35:42;;;;;;;;;;;18.40;99.90;;;;;;5115819;28;19953;-81
2022/04/30 03:38:09;;;;;;;;;;;18.40;99.90;;;;;;5116233;28;20334;-79
2022/04/30 03:40:39;;;;;;;;;;;18.40;99.90;;;;;;5116010;28;19996;-84
2022/04/30 03:43:07;;;;;;;;;;;18.40;99.90;;;;;;5116132;28;20357;-84
2022/04/30 03:45:34;;;;;;;;;;;18.50;99.90;;;;;;5115689;28;20040;-81
2022/04/30 03:48:00;;;;;;;;;;;18.60;99.90;;;;;;5116055;28;19908;-84
2022/04/30 03:50:27;;;;;;;;;;;18.60;99.90;;;;;;5115440;28;20018;-83
2022/04/30 03:52:54;;;;;;;;;;;18.50;99.90;;;;;;5115877;28;19907;-82
2022/04/30 03:55:20;;;;;;;;;;;18.60;99.90;;;;;;5115751;28;19953;-79
2022/04/30 03:57:47;;;;;;;;;;;18.50;99.90;;;;;;5115431;28;19907;-81
2022/04/30 04:00:14;;;;;;;;;;;18.50;99.90;;;;;;5115842;28;19974;-79
2022/04/30 04:02:42;;;;;;;;;;;18.60;99.90;;;;;;5115548;28;19911;-83
2022/04/30 04:05:11;;;;;;;;;;;18.60;99.90;;;;;;5115363;28;19960;-74
2022/04/30 04:07:41;;;;;;;;;;;18.70;99.90;;;;;;5115283;28;19908;-76
2022/04/30 04:10:12;;;;;;;;;;;18.80;99.90;;;;;;5115307;28;19916;-76
2022/04/30 04:12:42;;;;;;;;;;;18.80;99.90;;;;;;5115414;28;19939;-76
2022/04/30 04:17:55;;;;;;;;;;;18.80;99.90;;;;;;5115387;28;19968;-80
2022/04/30 04:20:25;;;;;;;;;;;18.80;99.90;;;;;;5115046;28;20007;-76
2022/04/30 04:22:57;;;;;;;;;;;18.80;99.90;;;;;;5115101;28;19964;-75
2022/04/30 04:28:09;;;;;;;;;;;18.80;99.90;;;;;;5115149;28;19953;-75
2022/04/30 04:30:35;;;;;;;;;;;18.90;99.90;;;;;;5114860;28;20023;-79
2022/04/30 04:33:03;;;;;;;;;;;18.80;99.90;;;;;;5114914;28;19908;-75
2022/04/30 04:35:30;;;;;;;;;;;18.80;99.90;;;;;;5113788;28;19988;-77
2022/04/30 04:37:56;;;;;;;;;;;18.90;99.90;;;;;;5114748;28;19908;-77
2022/04/30 04:40:23;;;;;;;;;;;18.90;99.90;;;;;;5114722;28;19912;-76
2022/04/30 04:42:50;;;;;;;;;;;18.90;99.90;;;;;;5114947;28;19908;-78
2022/04/30 04:45:16;;;;;;;;;;;19.00;99.90;;;;;;5114719;28;20315;-76
2022/04/30 04:47:49;;;;;;;;;;;19.00;99.90;;;;;;5114449;28;20278;-77
2022/04/30 04:50:16;;;;;;;;;;;19.10;99.90;;;;;;5114028;28;19919;-74
2022/04/30 04:52:44;;;;;;;;;;;19.00;99.90;;;;;;5114363;28;19956;-74
2022/04/30 04:55:10;;;;;;;;;;;19.00;99.90;;;;;;5114324;28;19908;-77
2022/04/30 04:57:37;;;;;;;;;;;19.00;99.90;;;;;;5114020;28;19907;-76
2022/04/30 05:00:05;;;;;;;;;;;19.00;99.90;;;;;;5114535;28;19908;-77
2022/04/30 05:02:31;;;;;;;;;;;19.00;99.90;;;;;;5114442;28;19918;-77
2022/04/30 05:04:58;;;;;;;;;;;19.00;99.90;;;;;;5114362;28;20426;-75
2022/04/30 05:07:25;;;;;;;;;;;19.10;99.90;;;;;;5114159;28;20020;-83
2022/04/30 05:09:52;;;;;;;;;;;19.10;99.90;;;;;;5114152;28;20014;-76
2022/04/30 05:12:19;;;;;;;;;;;19.20;99.90;;;;;;5114272;28;20003;-77
2022/04/30 05:14:46;;;;;;;;;;;19.20;99.90;;;;;;5114296;28;20362;-76
2022/04/30 05:17:15;;;;;;;;;;;19.30;99.90;;;;;;5113905;28;19916;-75
2022/04/30 05:19:42;;;;;;;;;;;19.30;99.90;;;;;;5113912;28;20353;-76
2022/04/30 05:22:09;;;;;;;;;;;19.40;99.90;;;;;;5114083;28;20045;-77
2022/04/30 05:24:35;;;;;;;;;;;19.40;99.90;;;;;;5114083;28;19915;-79
2022/04/30 05:27:02;;;;;;;;;;;19.40;99.90;;;;;;5114309;28;19915;-81
2022/04/30 05:29:29;;;;;;;;;;;19.50;99.90;;;;;;5114071;28;19997;-78
2022/04/30 05:31:55;;;;;;;;;;;19.50;99.90;;;;;;5114272;28;20321;-80
2022/04/30 05:34:22;;;;;;;;;;;19.50;99.90;;;;;;5114014;28;19915;-78
2022/04/30 05:36:49;;;;;;;;;;;19.50;99.90;;;;;;5114088;28;19908;-80
2022/04/30 05:39:15;;;;;;;;;;;19.50;99.90;;;;;;5114361;28;19911;-83
2022/04/30 05:41:42;;;;;;;;;;;19.40;99.90;;;;;;5113984;28;19998;-84
2022/04/30 05:44:09;;;;;;;;;;;19.40;99.90;;;;;;5114150;28;20354;-83
2022/04/30 05:46:35;;;;;;;;;;;19.50;99.90;;;;;;5113825;28;19908;-80
2022/04/30 05:49:02;;;;;;;;;;;19.50;99.90;;;;;;5113820;28;19912;-80
2022/04/30 05:51:28;;;;;;;;;;;19.40;99.90;;;;;;5114257;28;19983;-83
2022/04/30 05:53:57;;;;;;;;;;;19.40;99.90;;;;;;5113879;28;19908;-79
2022/04/30 05:56:24;;;;;;;;;;;19.30;99.90;;;;;;5081347;28;20324;-82
2022/04/30 05:58:50;;;;;;;;;;;19.30;99.90;;;;;;5093259;28;19985;-79
2022/04/30 06:01:17;;;;;;;;;;;19.30;99.90;;;;;;5093518;28;20431;-85
2022/04/30 06:03:43;;;;;;;;;;;19.30;99.90;;;;;;5093466;28;19953;-83
2022/04/30 06:06:11;;;;;;;;;;;19.30;99.90;;;;;;5094034;28;19915;-78
2022/04/30 06:08:37;;;;;;;;;;;19.30;99.90;;;;;;5093436;28;20286;-86
2022/04/30 06:11:04;;;;;;;;;;;19.30;99.90;;;;;;5094044;28;20358;-84
2022/04/30 06:13:30;;;;;;;;;;;19.20;99.90;;;;;;5093286;28;19930;-81
2022/04/30 06:15:57;;;;;;;;;;;19.20;99.90;;;;;;5092853;28;19908;-82
2022/04/30 06:18:25;;;;;;;;;;;19.20;99.90;;;;;;5092471;28;19908;-77
2022/04/30 06:20:51;;;;;;;;;;;19.20;99.90;;;;;;5092386;28;19958;-78
2022/04/30 06:23:18;;;;;;;;;;;19.20;99.90;;;;;;5092705;28;20339;-83
2022/04/30 06:25:45;;;;;;;;;;;19.20;99.90;;;;;;5092346;28;19908;-79
2022/04/30 06:28:13;;;;;;;;;;;19.10;99.90;;;;;;5092685;28;19908;-78
2022/04/30 06:30:40;;;;;;;;;;;19.10;99.90;;;;;;5092295;28;19917;-79
2022/04/30 06:33:06;;;;;;;;;;;19.10;99.90;;;;;;5092629;28;20351;-81
2022/04/30 06:35:35;;;;;;;;;;;19.10;99.90;;;;;;5092827;28;19912;-88
2022/04/30 06:38:01;;;;;;;;;;;19.10;99.90;;;;;;5094166;28;19909;-91
2022/04/30 06:40:28;;;;;;;;;;;19.10;99.90;;;;;;5094571;28;19918;-89
2022/04/30 06:42:55;;;;;;;;;;;19.00;99.90;;;;;;5095821;28;19938;-89
2022/04/30 06:45:21;;;;;;;;;;;18.90;99.90;;;;;;5130272;28;19908;-90
2022/04/30 06:47:48;;;;;;;;;;;18.90;99.90;;;;;;5096487;28;20014;-84
2022/04/30 06:50:15;;;;;;;;;;;18.90;99.90;;;;;;5094293;28;19920;-88
2022/04/30 06:58:11;;;;;;;;;;;18.90;99.90;;;;;;5095268;28;19914;-85
2022/04/30 07:03:29;;;;;;;;;;;18.80;99.90;;;;;;5097012;28;20362;-78
2022/04/30 07:06:03;;;;;;;;;;;18.70;99.90;;;;;;5095589;28;19908;-76
2022/04/30 07:08:31;;;;;;;;;;;18.70;99.90;;;;;;5095489;28;19908;-77
2022/04/30 07:10:58;;;;;;;;;;;18.80;99.90;;;;;;5095391;28;19916;-77
2022/04/30 07:13:24;;;;;;;;;;;18.70;99.90;;;;;;5095600;28;19915;-86
2022/04/30 07:15:51;;;;;;;;;;;18.70;99.90;;;;;;5096349;28;19912;-78
2022/04/30 07:18:17;;;;;;;;;;;18.70;99.90;;;;;;5095319;28;19994;-78
2022/04/30 07:20:44;;;;;;;;;;;18.70;99.90;;;;;;5095042;28;20267;-77
2022/04/30 07:23:11;;;;;;;;;;;18.60;99.90;;;;;;5095118;28;19908;-77
2022/04/30 07:25:37;;;;;;;;;;;18.60;99.90;;;;;;5093794;28;19908;-77
2022/04/30 07:28:04;;;;;;;;;;;18.50;99.90;;;;;;5095407;28;19908;-78
2022/04/30 07:30:31;;;;;;;;;;;18.50;99.90;;;;;;5095506;28;19937;-77
2022/04/30 07:32:57;;;;;;;;;;;18.40;99.90;;;;;;5095162;28;19908;-78
2022/04/30 07:35:24;;;;;;;;;;;18.40;99.90;;;;;;5095213;28;19930;-77
2022/04/30 07:37:51;;;;;;;;;;;18.40;99.90;;;;;;5094971;28;20420;-77
2022/04/30 07:40:17;;;;;;;;;;;18.40;99.90;;;;;;5095111;28;19999;-77
2022/04/30 07:42:44;;;;;;;;;;;18.30;99.90;;;;;;5095072;28;19954;-79
2022/04/30 07:45:11;;;;;;;;;;;18.30;99.90;;;;;;5094904;28;19962;-77
2022/04/30 07:47:37;;;;;;;;;;;18.20;99.90;;;;;;5094874;28;19991;-79
2022/04/30 07:50:04;;;;;;;;;;;18.20;99.90;;;;;;5097691;28;19931;-76
2022/04/30 07:52:32;;;;;;;;;;;18.20;99.90;;;;;;5113956;28;19912;-78
2022/04/30 07:55:01;;;;;;;;;;;18.20;99.90;;;;;;5113814;28;19912;-78
2022/04/30 07:57:28;;;;;;;;;;;18.20;99.90;;;;;;5113578;28;19908;-75
2022/04/30 07:59:54;;;;;;;;;;;18.20;99.90;;;;;;5113621;28;19990;-77
2022/04/30 08:02:21;;;;;;;;;;;18.10;99.90;;;;;;5112232;28;20314;-78
2022/04/30 08:04:48;;;;;;;;;;;18.10;99.90;;;;;;5113585;28;19915;-83
2022/04/30 08:07:14;;;;;;;;;;;18.00;99.90;;;;;;5113784;28;19915;-76
2022/04/30 08:09:41;;;;;;;;;;;18.00;99.90;;;;;;5112192;28;19908;-78
2022/04/30 08:12:08;;;;;;;;;;;18.00;99.90;;;;;;5113810;28;19920;-76
2022/04/30 08:14:35;;;;;;;;;;;17.90;99.90;;;;;;5113118;28;19908;-81
2022/04/30 08:17:01;;;;;;;;;;;17.90;99.90;;;;;;5113261;28;19930;-79
2022/04/30 08:19:28;;;;;;;;;;;17.90;99.90;;;;;;5113250;28;20394;-88
2022/04/30 08:21:55;;;;;;;;;;;17.90;99.90;;;;;;5114846;28;19908;-86
2022/04/30 08:24:22;;;;;;;;;;;17.90;99.90;;;;;;5114504;28;19966;-84
2022/04/30 08:26:49;;;;;;;;;;;17.90;99.90;;;;;;5114166;28;20031;-85
2022/04/30 08:29:16;;;;;;;;;;;17.90;99.90;;;;;;5113930;28;19915;-86
2022/04/30 08:31:42;;;;;;;;;;;17.90;99.90;;;;;;5114007;28;20331;-86
2022/04/30 08:34:09;;;;;;;;;;;17.80;99.90;;;;;;5114329;28;20376;-84
2022/04/30 08:36:36;;;;;;;;;;;17.80;99.90;;;;;;5113769;28;19914;-85
2022/04/30 08:39:02;;;;;;;;;;;17.90;99.90;;;;;;5113955;28;19919;-86
2022/04/30 08:41:29;;;;;;;;;;;17.80;99.90;;;;;;5112978;28;20010;-86
2022/04/30 08:43:56;;;;;;;;;;;17.80;99.90;;;;;;5113822;28;20003;-87
2022/04/30 08:46:22;;;;;;;;;;;17.80;99.90;;;;;;5113955;28;19912;-85
2022/04/30 08:48:49;;;;;;;;;;;17.80;99.90;;;;;;5113614;28;20365;-84
2022/04/30 08:51:16;;;;;;;;;;;17.80;99.90;;;;;;5113467;28;19959;-79
2022/04/30 08:53:43;;;;;;;;;;;17.80;99.90;;;;;;5112216;28;19911;-82
2022/04/30 08:56:10;;;;;;;;;;;17.80;99.90;;;;;;5112051;28;19908;-81
2022/04/30 08:58:37;;;;;;;;;;;17.80;99.90;;;;;;5112887;28;19908;-78
2022/04/30 09:01:05;;;;;;;;;;;17.70;99.90;;;;;;5113323;28;20004;-81
2022/04/30 09:03:35;;;;;;;;;;;17.70;99.90;;;;;;5113695;28;19960;-87
2022/04/30 09:06:03;;;;;;;;;;;17.70;99.90;;;;;;5115340;28;19908;-88
2022/04/30 09:08:29;;;;;;;;;;;17.70;99.90;;;;;;5116309;28;19911;-87
2022/04/30 09:11:06;;;;;;;;;;;17.70;99.90;;;;;;5116520;28;19916;-88
2022/04/30 09:13:32;;;;;;;;;;;17.70;99.90;;;;;;5116628;28;19926;-87
2022/04/30 09:15:59;;;;;;;;;;;17.70;99.90;;;;;;5117205;28;19914;-87
2022/04/30 09:18:26;;;;;;;;;;;17.70;99.90;;;;;;5114739;28;19907;-80
2022/04/30 09:20:55;;;;;;;;;;;17.70;99.90;;;;;;5113803;28;19907;-77
2022/04/30 09:23:25;;;;;;;;;;;17.70;99.90;;;;;;5114717;28;19914;-74
2022/04/30 09:25:53;;;;;;;;;;;17.70;99.90;;;;;;5114252;28;20350;-77
2022/04/30 09:28:26;;;;;;;;;;;17.70;99.90;;;;;;5114283;28;19908;-76
2022/04/30 09:31:13;;;;;;;;;;;17.70;99.90;;;;;;5113271;28;19920;-77
2022/04/30 09:33:52;;;;;;;;;;;17.70;99.90;;;;;;5114045;28;19907;-77
2022/04/30 09:39:17;;;;;;;;;;;17.60;99.90;;;;;;5114935;28;19919;-82
2022/04/30 09:41:44;;;;;;;;;;;17.50;99.90;;;;;;5114134;28;20008;-84
2022/04/30 09:44:14;;;;;;;;;;;17.50;99.90;;;;;;5114679;28;19908;-83
2022/04/30 09:46:41;;;;;;;;;;;17.50;99.90;;;;;;5114622;28;19907;-85
2022/04/30 09:54:40;;;;;;;;;;;17.50;99.90;;;;;;5114345;28;19915;-77
2022/04/30 09:57:09;;;;;;;;;;;17.40;99.90;;;;;;5113876;28;19907;-76
2022/04/30 09:59:37;;;;;;;;;;;17.40;99.90;;;;;;5113627;28;19957;-75
2022/04/30 10:02:07;;;;;;;;;;;17.40;99.90;;;;;;5113708;28;19912;-78
2022/04/30 10:04:35;;;;;;;;;;;17.30;99.90;;;;;;5113571;28;19941;-75
2022/04/30 10:07:03;;;;;;;;;;;17.20;99.90;;;;;;5113460;28;20003;-76
2022/04/30 10:09:51;;;;;;;;;;;17.20;99.90;;;;;;5113488;28;19915;-77
2022/04/30 10:12:39;;;;;;;;;;;17.00;99.90;;;;;;5113663;28;19919;-77
2022/04/30 10:15:12;;;;;;;;;;;17.00;99.90;;;;;;5113871;28;19955;-75
2022/04/30 10:17:42;;;;;;;;;;;16.90;99.90;;;;;;5086754;28;19916;-77
2022/04/30 10:20:21;;;;;;;;;;;17.00;99.90;;;;;;5071605;28;19920;-79
2022/04/30 10:22:52;;;;;;;;;;;17.00;99.90;;;;;;5069980;28;20675;-78
2022/04/30 10:25:38;;;;;;;;;;;17.00;99.90;;;;;;5069768;28;19959;-75
2022/04/30 10:28:11;;;;;;;;;;;16.90;99.90;;;;;;5062840;28;19966;-76
2022/04/30 10:30:38;;;;;;;;;;;17.00;99.90;;;;;;5069876;28;19916;-76
2022/04/30 10:33:07;;;;;;;;;;;17.00;99.90;;;;;;5073383;28;20286;-77
2022/04/30 10:35:42;;;;;;;;;;;17.00;99.90;;;;;;5073738;28;19955;-76
2022/04/30 10:38:10;;;;;;;;;;;17.00;99.90;;;;;;5074088;28;19916;-75
2022/04/30 10:40:38;;;;;;;;;;;17.10;99.90;;;;;;5074000;28;20438;-76
2022/04/30 10:43:14;;;;;;;;;;;17.00;99.90;;;;;;5073390;28;19939;-76
2022/04/30 10:45:40;;;;;;;;;;;17.00;99.90;;;;;;5073615;28;20018;-77
2022/04/30 10:48:07;;;;;;;;;;;17.00;99.90;;;;;;5073649;28;19916;-76
2022/04/30 10:50:34;;;;;;;;;;;16.90;99.90;;;;;;5073881;28;19931;-77
2022/04/30 10:53:01;;;;;;;;;;;16.90;99.90;;;;;;5074370;28;20509;-76
2022/04/30 10:55:28;;;;;;;;;;;16.90;99.90;;;;;;5073264;28;19913;-77
2022/04/30 10:57:54;;;;;;;;;;;16.90;99.90;;;;;;5073628;28;19909;-76
2022/04/30 11:00:24;;;;;;;;;;;16.80;99.90;;;;;;5073811;28;19909;-76
2022/04/30 11:02:50;;;;;;;;;;;16.80;99.90;;;;;;5073724;28;19951;-77
2022/04/30 11:05:24;;;;;;;;;;;16.80;99.90;;;;;;5074960;28;19909;-78
2022/04/30 11:07:51;;;;;;;;;;;16.70;99.90;;;;;;5078378;28;19944;-79
2022/04/30 11:10:18;;;;;;;;;;;16.70;99.90;;;;;;5078654;28;19913;-81
2022/04/30 11:12:44;;;;;;;;;;;16.60;99.90;;;;;;5083182;28;19909;-79
2022/04/30 11:15:13;;;;;;;;;;;16.60;99.90;;;;;;5086989;28;19908;-78
2022/04/30 11:17:47;;;;;;;;;;;16.60;99.90;;;;;;5087078;28;19913;-77
2022/04/30 11:20:24;;;;;;;;;;;16.50;99.90;;;;;;5088555;28;19900;-78
2022/04/30 11:22:53;;;;;;;;;;;16.50;99.90;;;;;;5088551;28;19944;-80
2022/04/30 11:25:20;;;;;;;;;;;16.40;99.90;;;;;;5087807;28;20216;-78
2022/04/30 11:27:46;;;;;;;;;;;16.50;99.90;;;;;;5088712;28;19919;-80
2022/04/30 11:30:13;;;;;;;;;;;16.50;99.90;;;;;;5088543;28;20441;-80
2022/04/30 11:32:40;;;;;;;;;;;16.30;99.90;;;;;;5088841;28;20019;-79
2022/04/30 11:35:07;;;;;;;;;;;16.30;99.90;;;;;;5086753;28;19931;-77
2022/04/30 11:37:38;;;;;;;;;;;16.30;99.90;;;;;;5088158;28;19912;-78
2022/04/30 11:40:05;;;;;;;;;;;16.30;99.90;;;;;;5086603;28;19913;-76
2022/04/30 11:42:32;;;;;;;;;;;16.30;99.90;;;;;;5089880;28;19913;-90
2022/04/30 11:44:58;;;;;;;;;;;16.30;99.90;;;;;;5091772;28;19913;-90
2022/04/30 11:47:25;;;;;;;;;;;16.30;99.90;;;;;;5080344;28;19908;-87
2022/04/30 11:50:05;;;;;;;;;;;16.30;99.90;;;;;;5083998;28;19935;-87
2022/04/30 11:52:32;;;;;;;;;;;16.20;99.90;;;;;;5086427;28;19959;-90
2022/04/30 11:55:00;;;;;;;;;;;16.20;99.90;;;;;;5088970;28;19913;-87
2022/04/30 11:57:27;;;;;;;;;;;16.20;99.90;;;;;;5090400;28;19980;-87
2022/04/30 11:59:55;;;;;;;;;;;16.20;99.90;;;;;;5090856;28;19912;-90
2022/04/30 12:02:22;;;;;;;;;;;16.10;99.90;;;;;;5092425;28;20003;-80
2022/04/30 12:04:50;;;;;;;;;;;16.10;99.90;;;;;;5091028;28;19938;-89
2022/04/30 12:07:17;;;;;;;;;;;16.20;99.90;;;;;;5091686;28;20287;-79
2022/04/30 12:09:47;;;;;;;;;;;16.20;99.90;;;;;;5089851;28;19919;-89
2022/04/30 12:12:18;;;;;;;;;;;16.10;99.90;;;;;;5084441;28;20019;-89
2022/04/30 12:14:45;;;;;;;;;;;16.10;99.90;;;;;;5079644;28;19909;-86
2022/04/30 12:17:12;;;;;;;;;;;16.20;99.90;;;;;;5093077;28;19908;-85
2022/04/30 12:25:10;;;;;;;;;;;16.00;99.90;;;;;;5074904;28;19958;-88
2022/04/30 12:27:38;;;;;;;;;;;16.00;99.90;;;;;;5074982;28;20362;-90
2022/04/30 12:30:06;;;;;;;;;;;15.90;99.90;;;;;;5074394;28;19912;-87
2022/04/30 12:32:35;;;;;;;;;;;15.90;99.90;;;;;;5075148;28;19912;-89
2022/04/30 12:35:02;;;;;;;;;;;15.90;99.90;;;;;;5074980;28;19916;-92
2022/04/30 12:37:30;;;;;;;;;;;15.90;99.90;;;;;;5074323;28;19909;-77
2022/04/30 12:39:57;;;;;;;;;;;15.90;99.90;;;;;;5072186;28;19912;-78
2022/04/30 12:42:24;;;;;;;;;;;15.80;99.90;;;;;;5072151;28;20025;-78
2022/04/30 12:44:51;;;;;;;;;;;15.90;99.90;;;;;;5079732;28;19916;-86
2022/04/30 12:47:17;;;;;;;;;;;15.90;99.90;;;;;;5086057;28;19912;-81
2022/04/30 12:49:44;;;;;;;;;;;15.90;99.90;;;;;;5075120;28;19962;-75
2022/04/30 12:52:10;;;;;;;;;;;15.90;99.90;;;;;;5071949;28;19919;-76
2022/04/30 12:54:37;;;;;;;;;;;15.80;99.90;;;;;;5070670;28;19909;-75
2022/04/30 12:57:07;;;;;;;;;;;15.80;99.90;;;;;;5071416;28;19909;-76
2022/04/30 12:59:34;;;;;;;;;;;15.80;99.90;;;;;;5071329;28;19909;-75
2022/04/30 13:02:01;;;;;;;;;;;15.70;99.90;;;;;;5071414;28;20355;-82
2022/04/30 13:04:27;;;;;;;;;;;15.70;99.90;;;;;;5071311;28;19908;-75
2022/04/30 13:06:54;;;;;;;;;;;15.70;99.90;;;;;;5070742;28;19912;-75
2022/04/30 13:14:50;;;;;;;;;;;15.70;99.90;;;;;;5072742;28;20014;-78
2022/04/30 13:17:17;;;;;;;;;;;15.70;99.90;;;;;;5072799;28;19966;-90
2022/04/30 13:19:44;;;;;;;;;;;15.70;99.90;;;;;;5072189;28;20343;-89
2022/04/30 13:22:10;;;;;;;;;;;15.70;99.90;;;;;;5072268;28;20352;-88
2022/04/30 13:24:37;;;;;;;;;;;15.60;99.90;;;;;;5070992;28;19991;-79
2022/04/30 13:27:04;;;;;;;;;;;15.70;99.90;;;;;;5071190;28;19999;-74
2022/04/30 13:29:31;;;;;;;;;;;15.60;99.90;;;;;;5070884;28;19912;-76
2022/04/30 13:31:57;;;;;;;;;;;15.60;99.90;;;;;;5070539;28;20404;-75
2022/04/30 13:34:24;;;;;;;;;;;15.60;99.90;;;;;;5070734;28;20385;-75
2022/04/30 13:36:51;;;;;;;;;;;15.60;99.90;;;;;;5070754;28;19911;-75
2022/04/30 13:39:18;;;;;;;;;;;15.50;99.90;;;;;;5070645;28;19909;-76
2022/04/30 13:41:45;;;;;;;;;;;15.50;99.90;;;;;;5070503;28;20393;-75
2022/04/30 13:44:11;;;;;;;;;;;15.40;99.90;;;;;;5070605;28;19909;-75
2022/04/30 13:46:38;;;;;;;;;;;15.40;99.90;;;;;;5070134;28;19915;-75
2022/04/30 13:49:05;;;;;;;;;;;15.40;99.90;;;;;;5070294;28;19908;-74
2022/04/30 13:51:32;;;;;;;;;;;15.40;99.90;;;;;;5070386;28;19924;-75
2022/04/30 13:54:00;;;;;;;;;;;15.40;99.90;;;;;;5070840;28;19961;-80
2022/04/30 13:56:28;;;;;;;;;;;15.30;99.90;;;;;;5071285;28;20244;-75
2022/04/30 13:58:57;;;;;;;;;;;15.40;99.90;;;;;;5072120;28;19915;-90
2022/04/30 14:01:24;;;;;;;;;;;15.30;99.90;;;;;;5072649;28;20366;-86
2022/04/30 14:03:51;;;;;;;;;;;15.30;99.90;;;;;;5071628;28;19916;-89
2022/04/30 14:06:17;;;;;;;;;;;15.30;99.90;;;;;;5072005;28;19909;-76
2022/04/30 14:08:44;;;;;;;;;;;15.30;99.90;;;;;;5074742;28;19915;-76
2022/04/30 14:11:11;;;;;;;;;;;15.30;99.90;;;;;;5074550;28;19924;-78
2022/04/30 14:16:22;;;;;;;;;;;15.30;99.90;;;;;;5096074;28;19934;-76
2022/04/30 14:18:49;;;;;;;;;;;15.30;99.90;;;;;;5095473;28;19935;-76
2022/04/30 14:21:16;;;;;;;;;;;15.30;99.90;;;;;;5095284;28;19936;-77
2022/04/30 14:23:44;;;;;;;;;;;15.30;99.90;;;;;;5095083;28;20121;-75
2022/04/30 14:26:11;;;;;;;;;;;15.20;99.90;;;;;;5094831;28;20006;-76
2022/04/30 14:28:39;;;;;;;;;;;15.20;99.90;;;;;;5095200;28;20002;-75
2022/04/30 14:31:06;;;;;;;;;;;15.20;99.90;;;;;;5095127;28;19977;-80
2022/04/30 14:33:32;;;;;;;;;;;15.20;99.90;;;;;;5094773;28;19912;-79
2022/04/30 14:36:00;;;;;;;;;;;15.10;99.90;;;;;;5095174;28;19908;-78
2022/04/30 14:38:27;;;;;;;;;;;15.10;99.90;;;;;;5094697;28;19961;-75
2022/04/30 14:40:54;;;;;;;;;;;15.10;99.90;;;;;;5094923;28;20000;-81
2022/04/30 14:43:20;;;;;;;;;;;15.10;99.90;;;;;;5095281;28;19916;-86
2022/04/30 14:45:47;;;;;;;;;;;15.10;99.90;;;;;;5094855;28;19994;-79
2022/04/30 14:48:14;;;;;;;;;;;15.10;99.90;;;;;;5095282;28;19912;-89
2022/04/30 14:50:40;;;;;;;;;;;15.10;99.90;;;;;;5094797;28;19924;-88
2022/04/30 14:53:07;;;;;;;;;;;15.00;99.90;;;;;;5095488;28;19912;-87
2022/04/30 14:55:34;;;;;;;;;;;15.10;99.90;;;;;;5095206;28;19908;-89
2022/04/30 14:58:01;;;;;;;;;;;15.10;99.90;;;;;;5095652;28;19916;-86
2022/04/30 15:00:27;;;;;;;;;;;15.00;99.90;;;;;;5095348;28;20401;-89
2022/04/30 15:02:54;;;;;;;;;;;15.00;99.90;;;;;;5095522;28;19950;-87
2022/04/30 15:05:21;;;;;;;;;;;15.10;99.90;;;;;;5095142;28;19915;-87
2022/04/30 15:07:47;;;;;;;;;;;15.00;99.90;;;;;;5095366;28;19912;-87
2022/04/30 15:10:14;;;;;;;;;;;15.00;99.90;;;;;;5095687;28;19938;-90
2022/04/30 15:12:41;;;;;;;;;;;15.00;99.90;;;;;;5095316;28;20366;-88